Time;durP1;ratioP1;P1;durP2;ratioP2;P2;SDS_P1;SDS_P2;PMS_P1;PMS_P2;Temp;Humidity;BMP_temperature;BMP_pressure;BME280_temperature;BME280_humidity;BME280_pressure;Samples;Min_cycle;Max_cycle;Signal;HPM_P1;HPM_P2
2023/10/27 00:02:02;;;;;;;38.83;23.67;;;;;;;9.04;100.00;99100.13;5095036;28;20042;-52
2023/10/27 00:04:30;;;;;;;39.20;24.45;;;;;;;9.06;100.00;99097.38;5095105;28;20522;-52
2023/10/27 00:06:59;;;;;;;39.15;24.05;;;;;;;9.05;100.00;99096.56;5095040;28;20055;-55
2023/10/27 00:09:31;;;;;;;41.90;24.77;;;;;;;9.07;100.00;99091.19;5094975;28;20048;-55
2023/10/27 00:11:59;;;;;;;43.10;25.48;;;;;;;9.07;100.00;99093.81;5094992;28;20052;-54
2023/10/27 00:14:27;;;;;;;40.42;24.52;;;;;;;9.08;100.00;99090.19;5094995;28;20051;-54
2023/10/27 00:16:55;;;;;;;40.13;25.42;;;;;;;9.07;100.00;99096.44;5094475;28;20494;-56
2023/10/27 00:19:24;;;;;;;44.58;25.02;;;;;;;9.09;100.00;99099.72;5094854;28;20126;-54
2023/10/27 00:21:52;;;;;;;42.05;25.80;;;;;;;9.10;100.00;99091.72;5093840;28;20068;-55
2023/10/27 00:24:20;;;;;;;41.67;24.30;;;;;;;9.12;100.00;99088.97;5090607;28;20058;-55
2023/10/27 00:26:50;;;;;;;44.63;25.80;;;;;;;9.14;100.00;99092.31;5093404;28;20124;-55
2023/10/27 00:29:19;;;;;;;43.58;25.38;;;;;;;9.18;100.00;99092.88;5094815;28;20052;-54
2023/10/27 00:31:47;;;;;;;42.75;25.15;;;;;;;9.20;100.00;99080.44;5094534;28;20086;-55
2023/10/27 00:34:15;;;;;;;45.00;26.42;;;;;;;9.14;100.00;99079.19;5090444;28;20403;-55
2023/10/27 00:36:43;;;;;;;45.65;26.00;;;;;;;9.16;100.00;99073.81;5091704;28;20052;-55
2023/10/27 00:39:11;;;;;;;45.10;26.27;;;;;;;9.16;100.00;99071.19;5094264;28;20597;-54
2023/10/27 00:41:39;;;;;;;46.53;26.10;;;;;;;9.19;100.00;99071.75;5094267;28;20071;-54
2023/10/27 00:44:09;;;;;;;45.15;26.63;;;;;;;9.17;100.00;99073.66;5094412;28;20044;-54
2023/10/27 00:46:40;;;;;;;44.38;26.25;;;;;;;9.19;100.00;99069.13;5094348;28;20105;-55
2023/10/27 00:49:08;;;;;;;43.92;26.95;;;;;;;9.17;100.00;99073.66;5094654;28;20086;-55
2023/10/27 00:51:36;;;;;;;45.92;27.25;;;;;;;9.19;100.00;99077.00;5094378;28;20044;-54
2023/10/27 00:54:08;;;;;;;45.15;27.20;;;;;;;9.20;100.00;99076.00;5094242;28;20552;-55
2023/10/27 00:56:37;;;;;;;47.08;27.20;;;;;;;9.25;100.00;99073.00;5094111;28;20068;-53
2023/10/27 00:59:05;;;;;;;43.90;26.45;;;;;;;9.26;100.00;99072.03;5093935;28;20073;-53
2023/10/27 01:01:35;;;;;;;46.65;27.50;;;;;;;9.25;100.00;99070.38;5091232;28;20852;-55
2023/10/27 01:04:03;;;;;;;46.67;26.65;;;;;;;9.25;100.00;99073.81;5092676;28;20040;-55
2023/10/27 01:06:32;;;;;;;42.97;24.58;;;;;;;9.25;100.00;99073.81;5093876;28;20032;-52
2023/10/27 01:09:00;;;;;;;45.08;26.35;;;;;;;9.25;100.00;99063.31;5092221;28;20044;-54
2023/10/27 01:11:30;;;;;;;46.80;26.23;;;;;;;9.25;100.00;99063.31;5093505;28;20055;-55
2023/10/27 01:13:58;;;;;;;48.55;27.92;;;;;;;9.26;100.00;99058.94;5093693;28;20498;-54
2023/10/27 01:16:26;;;;;;;47.47;26.95;;;;;;;9.25;100.00;99058.09;5093695;28;20044;-54
2023/10/27 01:18:56;;;;;;;46.83;27.15;;;;;;;9.32;100.00;99060.19;5093632;28;20376;-56
2023/10/27 01:21:24;;;;;;;48.20;27.23;;;;;;;9.33;100.00;99059.22;5090491;28;20177;-49
2023/10/27 01:23:53;;;;;;;52.58;28.65;;;;;;;9.36;100.00;99054.50;5088520;28;20048;-57
2023/10/27 01:26:21;;;;;;;49.35;28.13;;;;;;;9.35;100.00;99054.66;5092619;28;20063;-55
2023/10/27 01:28:50;;;;;;;55.30;29.83;;;;;;;9.35;100.00;99049.41;5090948;28;20101;-56
2023/10/27 01:31:18;;;;;;;48.42;27.85;;;;;;;9.35;100.00;99049.41;5090767;28;20040;-56
2023/10/27 01:33:46;;;;;;;53.63;29.08;;;;;;;9.36;100.00;99058.94;5090949;28;20040;-56
2023/10/27 01:36:14;;;;;;;60.03;29.35;;;;;;;9.37;100.00;99056.19;5088874;28;20067;-55
2023/10/27 01:38:42;;;;;;;52.63;28.83;;;;;;;9.36;100.00;99051.88;5093067;28;20078;-56
2023/10/27 01:41:11;;;;;;;56.92;29.50;;;;;;;9.39;100.00;99048.16;5092040;28;20044;-57
2023/10/27 01:43:39;;;;;;;58.70;30.58;;;;;;;9.38;100.00;99042.09;5090271;28;20079;-56
2023/10/27 01:46:07;;;;;;;59.53;29.05;;;;;;;9.39;100.00;99038.50;5091649;28;20518;-56
2023/10/27 01:48:36;;;;;;;54.53;29.35;;;;;;;9.39;100.00;99042.91;5091669;28;20055;-54
2023/10/27 01:51:04;;;;;;;54.80;29.92;;;;;;;9.40;100.00;99031.47;5090118;28;20051;-56
2023/10/27 01:53:33;;;;;;;53.67;28.20;;;;;;;9.41;100.00;99036.56;5090512;28;20363;-54
2023/10/27 01:56:01;;;;;;;60.05;29.75;;;;;;;9.41;100.00;99038.38;5093044;28;20521;-55
2023/10/27 01:58:33;;;;;;;52.58;29.67;;;;;;;9.40;100.00;99039.34;5091541;28;20400;-56
2023/10/27 02:01:01;;;;;;;53.17;28.42;;;;;;;9.41;100.00;99035.75;5092646;28;20051;-54
2023/10/27 02:03:32;;;;;;;54.72;29.95;;;;;;;9.43;100.00;99034.63;5089537;28;20047;-51
2023/10/27 02:06:00;;;;;;;59.80;30.45;;;;;;;9.43;100.00;99028.56;5089747;28;20130;-48
2023/10/27 02:08:28;;;;;;;59.58;29.70;;;;;;;9.45;100.00;99026.66;5090601;28;20787;-47
2023/10/27 02:10:57;;;;;;;59.92;30.48;;;;;;;9.45;100.00;99026.66;5089732;28;20040;-52
2023/10/27 02:13:25;;;;;;;60.33;30.73;;;;;;;9.45;100.00;99021.41;5091482;28;20062;-51
2023/10/27 02:15:54;;;;;;;57.80;28.65;;;;;;;9.45;100.00;99031.91;5092606;28;20044;-48
2023/10/27 02:18:22;;;;;;;59.38;31.75;;;;;;;9.48;100.00;99027.19;5091268;28;20040;-51
2023/10/27 02:20:50;;;;;;;60.85;32.33;;;;;;;9.48;100.00;99021.94;5092564;28;20495;-48
2023/10/27 02:23:18;;;;;;;60.05;30.85;;;;;;;9.52;100.00;99024.31;5092445;28;20122;-47
2023/10/27 02:25:47;;;;;;;56.85;28.95;;;;;;;9.52;100.00;99019.06;5092432;28;20459;-47
2023/10/27 02:28:15;;;;;;;57.22;30.60;;;;;;;9.50;100.00;99019.16;5092254;28;20052;-48
2023/10/27 02:30:44;;;;;;;56.90;29.80;;;;;;;9.48;100.00;99021.94;5092386;28;20040;-48
2023/10/27 02:33:15;;;;;;;62.97;30.13;;;;;;;9.52;100.00;99016.44;5092348;28;20044;-49
2023/10/27 02:35:43;;;;;;;54.72;28.40;;;;;;;9.53;100.00;99016.28;5092268;28;20047;-49
2023/10/27 02:38:11;;;;;;;54.85;29.27;;;;;;;9.53;100.00;99015.44;5089926;28;20082;-46
2023/10/27 02:40:40;;;;;;;61.55;30.77;;;;;;;9.53;100.00;99016.28;5088228;28;20055;-46
2023/10/27 02:43:11;;;;;;;63.00;31.20;;;;;;;9.54;100.00;99019.72;5089079;28;20056;-48
2023/10/27 02:45:39;;;;;;;57.85;29.80;;;;;;;9.55;100.00;99013.53;5089802;28;20054;-48
2023/10/27 02:48:07;;;;;;;62.28;30.80;;;;;;;9.55;100.00;99011.72;5091761;28;20066;-48
2023/10/27 02:50:37;;;;;;;57.40;30.58;;;;;;;9.52;100.00;99008.56;5091894;28;20415;-47
2023/10/27 02:53:05;;;;;;;55.47;30.10;;;;;;;9.54;100.00;99010.06;5092113;28;20538;-48
2023/10/27 02:55:36;;;;;;;58.97;29.83;;;;;;;9.57;100.00;99015.03;5091906;28;20089;-49
2023/10/27 02:58:04;;;;;;;59.08;30.63;;;;;;;9.56;100.00;99015.19;5091675;28;20059;-48
2023/10/27 03:00:34;;;;;;;57.65;30.05;;;;;;;9.58;100.00;99008.81;5091957;28;20040;-47
2023/10/27 03:03:03;;;;;;;57.75;29.63;;;;;;;9.57;100.00;99007.19;5091772;28;20410;-52
2023/10/27 03:05:31;;;;;;;58.15;29.88;;;;;;;9.58;100.00;99011.44;5091895;28;20485;-47
2023/10/27 03:08:01;;;;;;;59.22;29.25;;;;;;;9.58;100.00;99008.00;5088913;28;20406;-47
2023/10/27 03:10:31;;;;;;;57.13;29.27;;;;;;;9.60;100.00;99000.81;5086825;28;20502;-49
2023/10/27 03:13:00;;;;;;;57.25;30.45;;;;;;;9.60;100.00;99008.69;5091769;28;20044;-50
2023/10/27 03:15:29;;;;;;;56.15;29.10;;;;;;;9.58;100.00;99002.75;5091925;28;20040;-47
2023/10/27 03:17:57;;;;;;;56.72;30.95;;;;;;;9.60;100.00;98998.19;5091629;28;20040;-50
2023/10/27 03:20:25;;;;;;;54.97;29.92;;;;;;;9.61;100.00;99005.09;5091939;28;20048;-47
2023/10/27 03:22:53;;;;;;;57.67;28.25;;;;;;;9.61;100.00;99005.09;5091847;28;20458;-48
2023/10/27 03:25:23;;;;;;;52.55;28.40;;;;;;;9.61;100.00;98998.06;5091785;28;20044;-47
2023/10/27 03:27:51;;;;;;;53.70;27.38;;;;;;;9.61;100.00;98997.22;5091705;28;20059;-52
2023/10/27 03:30:19;;;;;;;56.65;28.85;;;;;;;9.59;100.00;98997.34;5091642;28;20058;-47
2023/10/27 03:32:47;;;;;;;54.38;28.35;;;;;;;9.53;100.00;98992.66;5091558;28;20993;-49
2023/10/27 03:35:19;;;;;;;58.83;28.05;;;;;;;9.56;100.00;98999.44;5091818;28;20040;-47
2023/10/27 03:37:47;;;;;;;53.97;26.85;;;;;;;9.58;100.00;98997.50;5091334;28;20515;-48
2023/10/27 03:40:15;;;;;;;55.83;27.13;;;;;;;9.57;100.00;98998.44;5091697;28;20098;-50
2023/10/27 03:42:44;;;;;;;59.00;28.85;;;;;;;9.60;100.00;98995.56;5091533;28;20032;-49
2023/10/27 03:45:12;;;;;;;52.45;26.38;;;;;;;9.59;100.00;98986.84;5091636;28;20055;-50
2023/10/27 03:47:41;;;;;;;59.95;27.63;;;;;;;9.63;100.00;98988.22;5091191;28;20146;-49
2023/10/27 03:50:11;;;;;;;52.83;26.27;;;;;;;9.61;100.00;98986.72;5088240;28;20052;-49
2023/10/27 03:52:40;;;;;;;52.83;25.65;;;;;;;9.63;100.00;98992.66;5089272;28;20487;-50
2023/10/27 03:55:11;;;;;;;49.40;26.27;;;;;;;9.62;100.00;98985.75;5091312;28;20052;-47
2023/10/27 03:57:42;;;;;;;47.17;24.50;;;;;;;9.58;100.00;98990.44;5091447;28;20131;-47
2023/10/27 04:00:13;;;;;;;48.08;24.80;;;;;;;9.61;100.00;98979.69;5088381;28;20044;-48
2023/10/27 04:02:46;;;;;;;50.03;24.83;;;;;;;9.62;100.00;98981.31;5088969;28;20113;-47
2023/10/27 04:05:14;;;;;;;44.78;24.35;;;;;;;9.60;100.00;98983.28;5091306;28;20051;-46
2023/10/27 04:07:42;;;;;;;48.25;24.55;;;;;;;9.53;100.00;98979.56;5090316;28;20093;-47
2023/10/27 04:10:10;;;;;;;50.72;25.00;;;;;;;9.55;100.00;98980.22;5091030;28;20503;-48
2023/10/27 04:12:38;;;;;;;45.80;24.58;;;;;;;9.57;100.00;98978.31;5094290;28;20135;-48
2023/10/27 04:15:08;;;;;;;50.25;25.17;;;;;;;9.60;100.00;98982.44;5094750;28;20043;-50
2023/10/27 04:17:38;;;;;;;49.75;25.42;;;;;;;9.57;100.00;98980.94;5094870;28;20129;-47
2023/10/27 04:20:08;;;;;;;47.63;24.48;;;;;;;9.58;100.00;98979.13;5094603;28;20040;-48
2023/10/27 04:22:36;;;;;;;46.92;24.73;;;;;;;9.59;100.00;98976.34;5094591;28;20052;-49
2023/10/27 04:25:05;;;;;;;47.75;25.35;;;;;;;9.57;100.00;98977.47;5094496;28;20044;-48
2023/10/27 04:27:33;;;;;;;44.47;22.75;;;;;;;9.54;100.00;98975.13;5094716;28;20048;-56
2023/10/27 04:30:04;;;;;;;47.22;24.00;;;;;;;9.55;100.00;98982.03;5093197;28;20040;-56
2023/10/27 04:32:32;;;;;;;43.58;23.35;;;;;;;9.57;100.00;98974.84;5091286;28;20040;-56
2023/10/27 04:35:02;;;;;;;47.58;24.30;;;;;;;9.57;100.00;98973.06;5093492;28;20101;-54
2023/10/27 04:37:32;;;;;;;38.67;22.48;;;;;;;9.52;100.00;98970.00;5094382;28;20079;-54
2023/10/27 04:40:01;;;;;;;40.72;23.55;;;;;;;9.52;100.00;98977.88;5090536;28;20040;-55
2023/10/27 04:42:29;;;;;;;40.28;22.75;;;;;;;9.51;100.00;98978.03;5091537;28;20075;-54
2023/10/27 04:44:57;;;;;;;39.08;22.75;;;;;;;9.51;100.00;98983.28;5091393;28;20134;-55
2023/10/27 04:47:28;;;;;;;38.42;22.55;;;;;;;9.53;100.00;98978.69;5091363;28;20442;-54
2023/10/27 04:49:56;;;;;;;37.47;22.23;;;;;;;9.50;100.00;98976.38;5091581;28;20052;-55
2023/10/27 04:52:26;;;;;;;38.42;22.25;;;;;;;9.48;100.00;98973.88;5090690;28;20044;-55
2023/10/27 04:54:55;;;;;;;38.28;21.23;;;;;;;9.49;100.00;98975.56;5090855;28;20048;-56
2023/10/27 04:57:26;;;;;;;35.05;20.70;;;;;;;9.52;100.00;98975.25;5094333;28;20089;-55
2023/10/27 04:59:56;;;;;;;37.85;21.80;;;;;;;9.51;100.00;98970.97;5094035;28;20128;-55
2023/10/27 05:02:26;;;;;;;38.15;21.75;;;;;;;9.50;100.00;98969.31;5094045;28;20044;-55
2023/10/27 05:04:54;;;;;;;36.45;21.42;;;;;;;9.51;100.00;98968.34;5093717;28;20403;-55
2023/10/27 05:07:24;;;;;;;34.05;20.55;;;;;;;9.54;100.00;98970.69;5090089;28;20071;-54
2023/10/27 05:09:54;;;;;;;34.20;20.00;;;;;;;9.56;100.00;98965.31;5091048;28;20925;-56
2023/10/27 05:12:22;;;;;;;32.65;19.52;;;;;;;9.52;100.00;98964.75;5093813;28;20040;-47
2023/10/27 05:14:52;;;;;;;30.52;18.50;;;;;;;9.54;100.00;98962.00;5093647;28;20036;-50
2023/10/27 05:17:20;;;;;;;28.90;18.20;;;;;;;9.54;100.00;98965.44;5093602;28;20043;-51
2023/10/27 05:19:49;;;;;;;29.15;17.15;;;;;;;9.48;100.00;98958.97;5092974;28;20048;-49
2023/10/27 05:22:18;;;;;;;30.20;18.10;;;;;;;9.52;100.00;98958.69;5093632;28;20421;-50
2023/10/27 05:24:46;;;;;;;29.10;17.05;;;;;;;9.53;100.00;98966.44;5093350;28;20131;-49
2023/10/27 05:27:16;;;;;;;29.48;17.02;;;;;;;9.49;100.00;98962.44;5093531;28;20044;-48
2023/10/27 05:29:44;;;;;;;28.45;18.20;;;;;;;9.51;100.00;98970.97;5090496;28;20522;-50
2023/10/27 05:32:13;;;;;;;27.83;17.20;;;;;;;9.50;100.00;98966.69;5090740;28;20118;-50
2023/10/27 05:34:41;;;;;;;29.83;18.40;;;;;;;9.51;100.00;98963.09;5093355;28;20052;-52
2023/10/27 05:37:09;;;;;;;29.65;18.15;;;;;;;9.50;100.00;98961.44;5093253;28;20700;-51
2023/10/27 05:39:40;;;;;;;30.45;18.67;;;;;;;9.47;100.00;98966.97;5089380;28;20044;-52
2023/10/27 05:42:08;;;;;;;29.92;18.70;;;;;;;9.50;100.00;98966.69;5088579;28;20051;-47
2023/10/27 05:44:39;;;;;;;29.95;17.95;;;;;;;9.51;100.00;98970.16;5090416;28;20047;-48
2023/10/27 05:47:08;;;;;;;30.33;17.73;;;;;;;9.51;100.00;98967.53;5092933;28;20058;-48
2023/10/27 05:49:36;;;;;;;27.08;17.08;;;;;;;9.51;100.00;98968.34;5093531;28;20376;-47
2023/10/27 05:52:07;;;;;;;26.48;17.02;;;;;;;9.52;100.00;98972.63;5094037;28;20056;-49
2023/10/27 05:54:35;;;;;;;27.13;17.35;;;;;;;9.53;100.00;98962.97;5093154;28;20123;-48
2023/10/27 05:57:03;;;;;;;24.65;16.98;;;;;;;9.53;100.00;98958.56;5092725;28;20123;-46
2023/10/27 05:59:31;;;;;;;27.08;16.33;;;;;;;9.55;100.00;98961.03;5091647;28;20052;-49
2023/10/27 06:02:01;;;;;;;24.75;16.23;;;;;;;9.54;100.00;98962.81;5088569;28;20048;-50
2023/10/27 06:04:42;;;;;;;23.63;15.75;;;;;;;9.54;100.00;98962.81;5092143;28;20048;-48
2023/10/27 06:07:15;;;;;;;24.52;15.35;;;;;;;9.58;100.00;98964.19;5092879;28;20044;-54
2023/10/27 06:09:44;;;;;;;24.90;16.23;;;;;;;9.58;100.00;98961.56;5092728;28;20052;-51
2023/10/27 06:12:12;;;;;;;22.50;14.68;;;;;;;9.57;100.00;98962.56;5092717;28;20044;-48
2023/10/27 06:14:44;;;;;;;22.52;14.25;;;;;;;9.58;100.00;98963.38;5092614;28;20597;-47
2023/10/27 06:17:15;;;;;;;22.77;13.68;;;;;;;9.59;100.00;98959.78;5092642;28;20124;-47
2023/10/27 06:19:43;;;;;;;21.13;14.10;;;;;;;9.57;100.00;98962.56;5092634;28;20219;-47
2023/10/27 06:22:13;;;;;;;22.10;14.23;;;;;;;9.54;100.00;98962.81;5092395;28;20150;-46
2023/10/27 06:24:42;;;;;;;23.13;13.80;;;;;;;9.55;100.00;98969.72;5092525;28;20048;-47
2023/10/27 06:27:12;;;;;;;21.30;13.25;;;;;;;9.58;100.00;98964.19;5092273;28;20067;-47
2023/10/27 06:29:40;;;;;;;21.40;14.25;;;;;;;9.58;100.00;98961.56;5092435;28;20044;-49
2023/10/27 06:32:08;;;;;;;19.60;13.05;;;;;;;9.58;100.00;98964.19;5091468;28;20043;-48
2023/10/27 06:34:38;;;;;;;20.13;13.43;;;;;;;9.55;100.00;98963.66;5092231;28;20048;-47
2023/10/27 06:37:07;;;;;;;19.52;13.55;;;;;;;9.54;100.00;98962.81;5091993;28;20052;-48
2023/10/27 06:39:35;;;;;;;20.48;13.77;;;;;;;9.54;100.00;98960.19;5092314;28;20517;-48
2023/10/27 06:42:04;;;;;;;20.30;12.95;;;;;;;9.55;100.00;98961.84;5092243;28;20225;-50
2023/10/27 06:44:32;;;;;;;22.13;14.30;;;;;;;9.55;100.00;98969.72;5092242;28;20491;-46
2023/10/27 06:47:01;;;;;;;20.85;13.77;;;;;;;9.59;100.00;98963.22;5092087;28;20514;-48
2023/10/27 06:49:29;;;;;;;19.38;12.85;;;;;;;9.55;100.00;98967.09;5092146;28;20059;-49
2023/10/27 06:51:58;;;;;;;18.60;12.52;;;;;;;9.55;100.00;98959.22;5091953;28;20182;-49
2023/10/27 06:54:27;;;;;;;21.35;13.05;;;;;;;9.55;100.00;98964.47;5092099;28;20123;-46
2023/10/27 06:56:55;;;;;;;20.45;13.27;;;;;;;9.57;100.00;98964.34;5091797;28;20117;-47
2023/10/27 06:59:23;;;;;;;19.90;12.65;;;;;;;9.55;100.00;98964.47;5091921;28;20048;-49
2023/10/27 07:01:52;;;;;;;19.02;11.73;;;;;;;9.51;100.00;98962.28;5091901;28;20048;-47
2023/10/27 07:04:20;;;;;;;17.38;11.52;;;;;;;9.52;100.00;98956.91;5090602;28;20127;-47
2023/10/27 07:06:49;;;;;;;18.52;11.98;;;;;;;9.56;100.00;98960.09;5091760;28;20050;-49
2023/10/27 07:09:18;;;;;;;18.35;11.88;;;;;;;9.58;100.00;98964.19;5092197;28;20056;-50
2023/10/27 07:11:46;;;;;;;17.95;12.02;;;;;;;9.54;100.00;98965.44;5091773;28;20044;-47
2023/10/27 07:14:15;;;;;;;17.95;11.68;;;;;;;9.50;100.00;98965.88;5092017;28;20040;-47
2023/10/27 07:16:43;;;;;;;17.95;12.25;;;;;;;9.46;100.00;98963.53;5091934;28;20123;-48
2023/10/27 07:19:12;;;;;;;20.10;12.32;;;;;;;9.48;100.00;98966.81;5091757;28;20087;-47
2023/10/27 07:21:41;;;;;;;19.17;12.40;;;;;;;9.47;100.00;98973.06;5091969;28;20048;-47
2023/10/27 07:24:10;;;;;;;18.98;12.63;;;;;;;9.49;100.00;98972.94;5091796;28;20073;-47
2023/10/27 07:26:39;;;;;;;19.83;13.30;;;;;;;9.49;100.00;98967.69;5091961;28;20068;-47
2023/10/27 07:29:07;;;;;;;20.10;12.43;;;;;;;9.46;100.00;98971.41;5091691;28;20051;-48
2023/10/27 07:31:36;;;;;;;19.70;14.05;;;;;;;9.50;100.00;98964.06;5091704;28;20052;-51
2023/10/27 07:34:05;;;;;;;21.40;13.80;;;;;;;9.48;100.00;98969.44;5091654;28;20123;-51
2023/10/27 07:36:34;;;;;;;24.70;14.70;;;;;;;9.48;100.00;98976.50;5091741;28;20126;-47
2023/10/27 07:39:02;;;;;;;20.20;13.55;;;;;;;9.52;100.00;98975.25;5091235;28;20529;-47
2023/10/27 07:41:32;;;;;;;19.73;14.13;;;;;;;9.53;100.00;98971.69;5090093;28;20056;-49
2023/10/27 07:44:03;;;;;;;21.63;14.00;;;;;;;9.50;100.00;98977.19;5094870;28;20048;-47
2023/10/27 07:46:31;;;;;;;22.02;13.93;;;;;;;9.52;100.00;98972.63;5095481;28;20575;-46
2023/10/27 07:49:00;;;;;;;21.77;14.30;;;;;;;9.57;100.00;98986.19;5093162;28;20051;-48
2023/10/27 07:51:28;;;;;;;21.80;14.15;;;;;;;9.55;100.00;98980.22;5091496;28;20795;-47
2023/10/27 07:53:56;;;;;;;22.02;14.57;;;;;;;9.51;100.00;98978.03;5093996;28;20056;-46
2023/10/27 07:56:27;;;;;;;21.95;13.45;;;;;;;9.52;100.00;98979.69;5095707;28;20130;-46
2023/10/27 07:58:55;;;;;;;24.67;15.60;;;;;;;9.56;100.00;98976.63;5093692;28;20123;-50
2023/10/27 08:01:25;;;;;;;21.00;14.23;;;;;;;9.58;100.00;98979.94;5090632;28;20101;-47
2023/10/27 08:03:53;;;;;;;25.23;15.05;;;;;;;9.52;100.00;98983.13;5094644;28;20102;-47
2023/10/27 08:06:21;;;;;;;24.63;15.80;;;;;;;9.58;100.00;98979.94;5095145;28;20044;-46
2023/10/27 08:08:49;;;;;;;22.55;15.05;;;;;;;9.57;100.00;98980.09;5095077;28;20448;-48
2023/10/27 08:11:18;;;;;;;23.65;14.98;;;;;;;9.57;100.00;98987.94;5094948;28;20052;-48
2023/10/27 08:13:46;;;;;;;21.95;14.85;;;;;;;9.61;100.00;98984.94;5095018;28;20123;-47
2023/10/27 08:16:15;;;;;;;22.83;14.98;;;;;;;9.61;100.00;98989.34;5094715;28;20043;-47
2023/10/27 08:18:45;;;;;;;21.05;14.95;;;;;;;9.62;100.00;98983.94;5093507;28;20059;-48
2023/10/27 08:21:13;;;;;;;21.88;14.65;;;;;;;9.63;100.00;98980.34;5094752;28;20047;-48
2023/10/27 08:23:41;;;;;;;23.08;14.98;;;;;;;9.69;100.00;98988.66;5094768;28;20487;-48
2023/10/27 08:26:10;;;;;;;23.15;15.88;;;;;;;9.69;100.00;98994.72;5094856;28;20064;-47
2023/10/27 08:28:38;;;;;;;23.50;14.40;;;;;;;9.70;100.00;98988.50;5094656;28;20506;-49
2023/10/27 08:31:06;;;;;;;21.05;14.57;;;;;;;9.71;100.00;98995.41;5094627;28;20105;-50
2023/10/27 08:33:36;;;;;;;21.27;14.60;;;;;;;9.73;100.00;98993.47;5094681;28;20067;-48
2023/10/27 08:36:06;;;;;;;21.15;14.45;;;;;;;9.78;100.00;99000.94;5094608;28;20362;-48
2023/10/27 08:38:35;;;;;;;19.75;13.68;;;;;;;9.77;100.00;98996.66;5094292;28;20091;-46
2023/10/27 08:41:05;;;;;;;19.65;14.00;;;;;;;9.77;100.00;98996.66;5094471;28;20101;-50
2023/10/27 08:43:34;;;;;;;19.02;12.95;;;;;;;9.75;100.00;98988.91;5094348;28;20483;-48
2023/10/27 08:46:04;;;;;;;18.65;13.60;;;;;;;9.78;100.00;98993.06;5094273;28;20047;-46
2023/10/27 08:48:33;;;;;;;21.20;14.63;;;;;;;9.82;100.00;98991.81;5094351;28;20044;-47
2023/10/27 08:51:09;;;;;;;19.70;14.18;;;;;;;9.82;100.00;98989.19;5094274;28;20048;-48
2023/10/27 08:53:40;;;;;;;18.20;12.70;;;;;;;9.83;100.00;98998.72;5093640;28;20093;-48
2023/10/27 08:56:12;;;;;;;20.20;13.95;;;;;;;9.84;100.00;98999.56;5094195;28;20142;-48
2023/10/27 08:58:40;;;;;;;18.97;12.97;;;;;;;9.86;100.00;99001.06;5094228;28;20050;-47
2023/10/27 09:01:09;;;;;;;20.20;13.80;;;;;;;9.89;100.00;99006.03;5094059;28;20460;-48
2023/10/27 09:03:37;;;;;;;19.88;13.15;;;;;;;9.91;100.00;99001.50;5091424;28;20058;-48
2023/10/27 09:06:07;;;;;;;19.30;13.77;;;;;;;9.93;100.00;99003.97;5090324;28;20050;-50
2023/10/27 09:08:35;;;;;;;19.15;14.65;;;;;;;9.91;100.00;99001.50;5093579;28;20043;-51
2023/10/27 09:11:04;;;;;;;20.73;14.68;;;;;;;10.00;100.00;99012.13;5093427;28;20108;-50
2023/10/27 09:13:39;;;;;;;19.77;13.77;;;;;;;9.98;100.00;99004.38;5091022;28;20044;-50
2023/10/27 09:16:08;;;;;;;20.60;13.82;;;;;;;9.97;100.00;99003.53;5092620;28;20458;-51
2023/10/27 09:18:37;;;;;;;22.58;15.52;;;;;;;9.98;100.00;99007.81;5093886;28;20126;-49
2023/10/27 09:21:07;;;;;;;20.38;14.75;;;;;;;10.03;100.00;99009.19;5093598;28;20059;-50
2023/10/27 09:23:46;;;;;;;21.73;14.88;;;;;;;10.06;100.00;99008.91;5093756;28;20460;-46
2023/10/27 09:26:14;;;;;;;20.67;14.73;;;;;;;10.06;100.00;99009.75;5092125;28;20511;-48
2023/10/27 09:28:42;;;;;;;20.85;14.75;;;;;;;10.07;100.00;99011.38;5093554;28;20047;-49
2023/10/27 09:31:11;;;;;;;22.35;15.05;;;;;;;10.10;100.00;99007.66;5093345;28;20039;-47
2023/10/27 09:33:39;;;;;;;20.50;13.35;;;;;;;10.13;100.00;99015.28;5093434;28;20051;-47
2023/10/27 09:36:12;;;;;;;20.45;14.35;;;;;;;10.13;100.00;99025.78;5093379;28;20032;-47
2023/10/27 09:38:41;;;;;;;19.70;14.50;;;;;;;10.14;100.00;99017.75;5093183;28;20079;-48
2023/10/27 09:41:11;;;;;;;20.90;13.93;;;;;;;10.15;100.00;99018.56;5093202;28;20054;-47
2023/10/27 09:43:42;;;;;;;19.88;13.82;;;;;;;10.18;100.00;99014.84;5093239;28;20040;-47
2023/10/27 09:46:15;;;;;;;20.92;14.15;;;;;;;10.19;100.00;99022.56;5093016;28;20396;-47
2023/10/27 09:48:47;;;;;;;20.00;14.10;;;;;;;10.24;100.00;99022.13;5093155;28;20050;-47
2023/10/27 09:51:27;;;;;;;20.60;13.85;;;;;;;10.27;100.00;99021.88;5093146;28;20115;-48
2023/10/27 09:53:57;;;;;;;;;;;;;;;10.24;100.00;99025.59;5093471;28;20063;-49
2023/10/27 09:56:26;;;;;;;20.88;14.23;;;;;;;10.27;100.00;99025.31;5093211;28;19924;-49
2023/10/27 09:58:54;;;;;;;20.90;14.70;;;;;;;10.32;100.00;99020.47;5093129;28;20123;-47
2023/10/27 10:01:22;;;;;;;20.63;13.30;;;;;;;10.33;100.00;99021.28;5093015;28;20044;-48
2023/10/27 10:03:51;;;;;;;17.60;13.70;;;;;;;10.36;100.00;99026.31;5092764;28;20044;-48
2023/10/27 10:06:23;;;;;;;17.20;12.80;;;;;;;10.36;100.00;99023.69;5092910;28;20044;-48
2023/10/27 10:09:11;;;;;;;17.77;12.82;;;;;;;10.34;100.00;99027.38;5092836;28;20051;-46
2023/10/27 10:11:55;;;;;;;18.00;12.60;;;;;;;10.37;100.00;99032.38;5092899;28;20101;-49
2023/10/27 10:14:48;;;;;;;17.05;13.15;;;;;;;10.39;100.00;99038.31;5092879;28;20108;-47
2023/10/27 10:17:38;;;;;;;18.55;12.65;;;;;;;10.38;100.00;99045.38;5092760;28;20059;-47
2023/10/27 10:20:09;;;;;;;17.42;12.60;;;;;;;10.37;100.00;99043.72;5085085;28;20585;-48
2023/10/27 10:22:52;;;;;;;18.83;13.63;;;;;;;10.39;100.00;99038.31;5092606;28;20076;-50
2023/10/27 10:25:31;;;;;;;16.77;12.68;;;;;;;10.42;100.00;99038.03;5091051;28;20052;-48
2023/10/27 10:28:22;;;;;;;18.77;13.85;;;;;;;10.42;100.00;99041.50;5092738;28;20055;-48
2023/10/27 10:31:27;;;;;;;17.13;12.70;;;;;;;10.42;100.00;99038.88;5092771;28;20051;-47
2023/10/27 10:34:10;;;;;;;17.02;12.32;;;;;;;10.45;100.00;99045.63;5092218;28;20086;-55
2023/10/27 10:36:40;;;;;;;16.77;12.18;;;;;;;10.47;100.00;99035.78;5090567;28;20060;-54
2023/10/27 10:39:11;;;;;;;16.08;12.13;;;;;;;10.48;100.00;99038.31;5091844;28;20560;-46
2023/10/27 10:42:05;;;;;;;17.55;12.95;;;;;;;10.50;100.00;99043.41;5092076;28;20048;-47
2023/10/27 10:44:34;;;;;;;17.90;13.20;;;;;;;10.52;100.00;99046.72;5085912;28;20102;-51
2023/10/27 10:47:07;;;;;;;16.40;11.90;;;;;;;10.55;100.00;99042.97;5089512;28;20052;-46
2023/10/27 10:49:36;;;;;;;17.25;12.73;;;;;;;10.57;100.00;99048.94;5090809;28;20410;-47
2023/10/27 10:52:06;;;;;;;16.58;12.35;;;;;;;10.60;100.00;99046.00;5092261;28;20044;-54
2023/10/27 10:54:38;;;;;;;15.75;12.32;;;;;;;10.62;100.00;99042.25;5090853;28;20369;-54
2023/10/27 10:57:12;;;;;;;16.95;13.23;;;;;;;10.64;100.00;99045.56;5089317;28;20051;-55
2023/10/27 10:59:54;;;;;;;16.20;12.43;;;;;;;10.68;100.00;99040.84;5090558;28;20499;-51
2023/10/27 11:02:22;;;;;;;15.27;11.73;;;;;;;10.69;100.00;99041.66;5090919;28;20040;-49
2023/10/27 11:04:53;;;;;;;16.80;12.05;;;;;;;10.71;100.00;99039.75;5092082;28;20555;-54
2023/10/27 11:07:23;;;;;;;16.70;11.85;;;;;;;10.76;100.00;99030.44;5092239;28;20051;-51
2023/10/27 11:09:51;;;;;;;14.90;11.23;;;;;;;10.78;100.00;99033.75;5091990;28;20558;-48
2023/10/27 11:12:29;;;;;;;15.48;11.95;;;;;;;10.82;100.00;99032.50;5091928;28;20360;-46
2023/10/27 11:14:58;;;;;;;14.35;11.15;;;;;;;10.85;100.00;99025.28;5091850;28;20101;-49
2023/10/27 11:17:27;;;;;;;15.15;11.48;;;;;;;10.88;100.00;99030.22;5092866;28;20040;-46
2023/10/27 11:20:00;;;;;;;15.40;10.97;;;;;;;10.87;100.00;99028.59;5096081;28;20052;-48
2023/10/27 11:22:30;;;;;;;13.40;10.30;;;;;;;10.90;100.00;99034.38;5094766;28;20102;-47
2023/10/27 11:25:01;;;;;;;14.32;10.20;;;;;;;10.88;100.00;99024.97;5095693;28;20376;-49
2023/10/27 11:27:32;;;;;;;14.18;10.30;;;;;;;10.91;100.00;99025.53;5095987;28;20040;-51
2023/10/27 11:30:01;;;;;;;14.15;10.20;;;;;;;10.97;100.00;99026.72;5095995;28;20125;-51